sensor_id;sensor_type;location;lat;lon;timestamp;P1;durP1;ratioP1;P2;durP2;ratioP2
12024;SDS011;6073;53.230;10.444;2023-04-29T00:01:34;18.38;;;14.95;;
12024;SDS011;6073;53.230;10.444;2023-04-29T00:04:00;16.52;;;13.88;;
12024;SDS011;6073;53.230;10.444;2023-04-29T00:06:26;15.77;;;12.68;;
12024;SDS011;6073;53.230;10.444;2023-04-29T00:08:52;15.52;;;13.52;;
12024;SDS011;6073;53.230;10.444;2023-04-29T00:11:17;13.95;;;12.40;;
12024;SDS011;6073;53.230;10.444;2023-04-29T00:13:43;14.77;;;12.60;;
12024;SDS011;6073;53.230;10.444;2023-04-29T00:16:08;15.05;;;12.52;;
12024;SDS011;6073;53.230;10.444;2023-04-29T00:18:34;14.82;;;11.68;;
12024;SDS011;6073;53.230;10.444;2023-04-29T00:21:01;15.52;;;13.50;;
12024;SDS011;6073;53.230;10.444;2023-04-29T00:23:29;14.75;;;13.15;;
12024;SDS011;6073;53.230;10.444;2023-04-29T00:25:56;14.32;;;12.18;;
12024;SDS011;6073;53.230;10.444;2023-04-29T00:28:21;13.48;;;12.07;;
12024;SDS011;6073;53.230;10.444;2023-04-29T00:30:47;13.95;;;12.40;;
12024;SDS011;6073;53.230;10.444;2023-04-29T00:33:12;19.52;;;13.27;;
12024;SDS011;6073;53.230;10.444;2023-04-29T00:35:38;16.48;;;12.40;;
12024;SDS011;6073;53.230;10.444;2023-04-29T00:38:03;15.65;;;12.15;;
12024;SDS011;6073;53.230;10.444;2023-04-29T00:40:29;14.60;;;12.15;;
12024;SDS011;6073;53.230;10.444;2023-04-29T00:42:54;16.23;;;13.32;;
12024;SDS011;6073;53.230;10.444;2023-04-29T00:45:21;16.52;;;12.57;;
12024;SDS011;6073;53.230;10.444;2023-04-29T00:47:46;14.82;;;12.98;;
12024;SDS011;6073;53.230;10.444;2023-04-29T00:50:12;13.73;;;11.85;;
12024;SDS011;6073;53.230;10.444;2023-04-29T00:52:38;17.17;;;13.35;;
12024;SDS011;6073;53.230;10.444;2023-04-29T00:55:04;15.75;;;13.15;;
12024;SDS011;6073;53.230;10.444;2023-04-29T00:57:31;17.30;;;13.32;;
12024;SDS011;6073;53.230;10.444;2023-04-29T00:59:58;16.33;;;13.40;;
12024;SDS011;6073;53.230;10.444;2023-04-29T01:02:24;15.93;;;13.10;;
12024;SDS011;6073;53.230;10.444;2023-04-29T01:04:50;15.02;;;13.43;;
12024;SDS011;6073;53.230;10.444;2023-04-29T01:07:17;18.10;;;13.23;;
12024;SDS011;6073;53.230;10.444;2023-04-29T01:10:09;18.27;;;14.77;;
12024;SDS011;6073;53.230;10.444;2023-04-29T01:15:16;19.30;;;14.70;;
12024;SDS011;6073;53.230;10.444;2023-04-29T01:17:58;15.63;;;13.07;;
12024;SDS011;6073;53.230;10.444;2023-04-29T01:20:29;15.40;;;12.93;;
12024;SDS011;6073;53.230;10.444;2023-04-29T01:22:55;17.35;;;13.55;;
12024;SDS011;6073;53.230;10.444;2023-04-29T01:25:21;18.17;;;13.70;;
12024;SDS011;6073;53.230;10.444;2023-04-29T01:28:01;17.88;;;13.50;;
12024;SDS011;6073;53.230;10.444;2023-04-29T01:30:49;16.67;;;13.15;;
12024;SDS011;6073;53.230;10.444;2023-04-29T01:33:27;15.43;;;12.30;;
12024;SDS011;6073;53.230;10.444;2023-04-29T01:38:47;17.27;;;12.80;;
12024;SDS011;6073;53.230;10.444;2023-04-29T01:41:17;14.82;;;12.07;;
12024;SDS011;6073;53.230;10.444;2023-04-29T01:43:52;15.32;;;11.85;;
12024;SDS011;6073;53.230;10.444;2023-04-29T01:46:22;13.85;;;12.38;;
12024;SDS011;6073;53.230;10.444;2023-04-29T01:48:47;15.30;;;12.30;;
12024;SDS011;6073;53.230;10.444;2023-04-29T01:51:16;14.10;;;11.95;;
12024;SDS011;6073;53.230;10.444;2023-04-29T01:53:41;14.05;;;12.50;;
12024;SDS011;6073;53.230;10.444;2023-04-29T01:56:07;17.60;;;13.18;;
12024;SDS011;6073;53.230;10.444;2023-04-29T01:58:33;18.50;;;14.18;;
12024;SDS011;6073;53.230;10.444;2023-04-29T02:00:58;16.02;;;13.07;;
12024;SDS011;6073;53.230;10.444;2023-04-29T02:03:24;17.85;;;13.05;;
12024;SDS011;6073;53.230;10.444;2023-04-29T02:05:49;16.52;;;12.65;;
12024;SDS011;6073;53.230;10.444;2023-04-29T02:08:16;17.80;;;13.40;;
12024;SDS011;6073;53.230;10.444;2023-04-29T02:10:50;15.40;;;11.75;;
12024;SDS011;6073;53.230;10.444;2023-04-29T02:13:18;14.50;;;11.15;;
12024;SDS011;6073;53.230;10.444;2023-04-29T02:15:44;15.43;;;12.07;;
12024;SDS011;6073;53.230;10.444;2023-04-29T02:18:09;15.68;;;12.70;;
12024;SDS011;6073;53.230;10.444;2023-04-29T02:20:35;14.93;;;12.27;;
12024;SDS011;6073;53.230;10.444;2023-04-29T02:23:00;14.50;;;12.15;;
12024;SDS011;6073;53.230;10.444;2023-04-29T02:25:26;16.15;;;12.57;;
12024;SDS011;6073;53.230;10.444;2023-04-29T02:27:52;15.05;;;12.43;;
12024;SDS011;6073;53.230;10.444;2023-04-29T02:30:17;16.73;;;13.73;;
12024;SDS011;6073;53.230;10.444;2023-04-29T02:32:42;14.23;;;11.73;;
12024;SDS011;6073;53.230;10.444;2023-04-29T02:35:08;15.50;;;12.38;;
12024;SDS011;6073;53.230;10.444;2023-04-29T02:37:34;18.63;;;13.52;;
12024;SDS011;6073;53.230;10.444;2023-04-29T02:40:00;16.08;;;11.88;;
12024;SDS011;6073;53.230;10.444;2023-04-29T02:42:26;13.35;;;11.60;;
12024;SDS011;6073;53.230;10.444;2023-04-29T02:44:51;14.80;;;11.52;;
12024;SDS011;6073;53.230;10.444;2023-04-29T02:47:17;15.95;;;12.18;;
12024;SDS011;6073;53.230;10.444;2023-04-29T02:49:42;14.55;;;12.02;;
12024;SDS011;6073;53.230;10.444;2023-04-29T02:52:08;16.77;;;12.50;;
12024;SDS011;6073;53.230;10.444;2023-04-29T02:54:33;17.10;;;13.30;;
12024;SDS011;6073;53.230;10.444;2023-04-29T02:57:00;15.35;;;12.77;;
12024;SDS011;6073;53.230;10.444;2023-04-29T02:59:25;13.60;;;11.95;;
12024;SDS011;6073;53.230;10.444;2023-04-29T03:01:51;17.48;;;13.90;;
12024;SDS011;6073;53.230;10.444;2023-04-29T03:04:18;14.68;;;12.45;;
12024;SDS011;6073;53.230;10.444;2023-04-29T03:06:44;17.27;;;13.20;;
12024;SDS011;6073;53.230;10.444;2023-04-29T03:09:10;15.07;;;12.90;;
12024;SDS011;6073;53.230;10.444;2023-04-29T03:11:37;17.48;;;12.98;;
12024;SDS011;6073;53.230;10.444;2023-04-29T03:14:02;17.55;;;13.63;;
12024;SDS011;6073;53.230;10.444;2023-04-29T03:16:28;15.93;;;13.20;;
12024;SDS011;6073;53.230;10.444;2023-04-29T03:18:55;18.05;;;13.82;;
12024;SDS011;6073;53.230;10.444;2023-04-29T03:21:21;16.45;;;13.45;;
12024;SDS011;6073;53.230;10.444;2023-04-29T03:23:49;19.17;;;13.80;;
12024;SDS011;6073;53.230;10.444;2023-04-29T03:26:14;18.95;;;14.32;;
12024;SDS011;6073;53.230;10.444;2023-04-29T03:28:40;17.50;;;13.25;;
12024;SDS011;6073;53.230;10.444;2023-04-29T03:31:06;18.02;;;14.48;;
12024;SDS011;6073;53.230;10.444;2023-04-29T03:33:31;17.15;;;14.45;;
12024;SDS011;6073;53.230;10.444;2023-04-29T03:35:57;17.98;;;12.93;;
12024;SDS011;6073;53.230;10.444;2023-04-29T03:38:22;19.20;;;14.95;;
12024;SDS011;6073;53.230;10.444;2023-04-29T03:40:49;18.02;;;14.18;;
12024;SDS011;6073;53.230;10.444;2023-04-29T03:43:15;16.35;;;12.93;;
12024;SDS011;6073;53.230;10.444;2023-04-29T03:45:41;17.73;;;14.73;;
12024;SDS011;6073;53.230;10.444;2023-04-29T03:48:06;17.70;;;14.05;;
12024;SDS011;6073;53.230;10.444;2023-04-29T03:50:32;20.60;;;14.55;;
12024;SDS011;6073;53.230;10.444;2023-04-29T03:52:58;17.88;;;14.82;;
12024;SDS011;6073;53.230;10.444;2023-04-29T03:55:23;19.08;;;14.27;;
12024;SDS011;6073;53.230;10.444;2023-04-29T03:57:50;17.50;;;13.57;;
12024;SDS011;6073;53.230;10.444;2023-04-29T04:00:15;16.90;;;14.00;;
12024;SDS011;6073;53.230;10.444;2023-04-29T04:02:41;20.92;;;15.23;;
12024;SDS011;6073;53.230;10.444;2023-04-29T04:05:06;17.75;;;14.13;;
12024;SDS011;6073;53.230;10.444;2023-04-29T04:07:32;20.92;;;14.95;;
12024;SDS011;6073;53.230;10.444;2023-04-29T04:09:57;19.25;;;14.85;;
12024;SDS011;6073;53.230;10.444;2023-04-29T04:12:23;19.85;;;15.02;;
12024;SDS011;6073;53.230;10.444;2023-04-29T04:14:48;19.67;;;14.65;;
12024;SDS011;6073;53.230;10.444;2023-04-29T04:17:14;23.67;;;15.18;;
12024;SDS011;6073;53.230;10.444;2023-04-29T04:19:40;20.92;;;14.85;;
12024;SDS011;6073;53.230;10.444;2023-04-29T04:22:05;19.60;;;16.08;;
12024;SDS011;6073;53.230;10.444;2023-04-29T04:24:31;21.15;;;15.90;;
12024;SDS011;6073;53.230;10.444;2023-04-29T04:26:57;23.13;;;16.42;;
12024;SDS011;6073;53.230;10.444;2023-04-29T04:29:22;20.35;;;15.88;;
12024;SDS011;6073;53.230;10.444;2023-04-29T04:31:48;22.33;;;16.95;;
12024;SDS011;6073;53.230;10.444;2023-04-29T04:34:13;21.70;;;16.35;;
12024;SDS011;6073;53.230;10.444;2023-04-29T04:36:39;23.50;;;17.02;;
12024;SDS011;6073;53.230;10.444;2023-04-29T04:39:05;22.90;;;16.90;;
12024;SDS011;6073;53.230;10.444;2023-04-29T04:41:31;20.35;;;16.50;;
12024;SDS011;6073;53.230;10.444;2023-04-29T04:43:56;25.33;;;18.02;;
12024;SDS011;6073;53.230;10.444;2023-04-29T04:46:22;22.88;;;17.98;;
12024;SDS011;6073;53.230;10.444;2023-04-29T04:48:47;24.13;;;18.33;;
12024;SDS011;6073;53.230;10.444;2023-04-29T04:51:13;26.48;;;19.02;;
12024;SDS011;6073;53.230;10.444;2023-04-29T04:53:39;26.48;;;18.88;;
12024;SDS011;6073;53.230;10.444;2023-04-29T04:56:05;22.83;;;18.48;;
12024;SDS011;6073;53.230;10.444;2023-04-29T04:58:31;25.25;;;17.40;;
12024;SDS011;6073;53.230;10.444;2023-04-29T05:00:57;27.05;;;19.23;;
12024;SDS011;6073;53.230;10.444;2023-04-29T05:03:24;25.33;;;18.48;;
12024;SDS011;6073;53.230;10.444;2023-04-29T05:05:53;21.75;;;17.25;;
12024;SDS011;6073;53.230;10.444;2023-04-29T05:08:19;24.33;;;18.17;;
12024;SDS011;6073;53.230;10.444;2023-04-29T05:10:44;23.15;;;16.98;;
12024;SDS011;6073;53.230;10.444;2023-04-29T05:13:10;24.55;;;17.98;;
12024;SDS011;6073;53.230;10.444;2023-04-29T05:15:35;22.75;;;17.00;;
12024;SDS011;6073;53.230;10.444;2023-04-29T05:18:01;20.20;;;16.55;;
12024;SDS011;6073;53.230;10.444;2023-04-29T05:20:26;23.35;;;16.15;;
12024;SDS011;6073;53.230;10.444;2023-04-29T05:22:52;22.02;;;16.58;;
12024;SDS011;6073;53.230;10.444;2023-04-29T05:25:17;22.13;;;17.33;;
12024;SDS011;6073;53.230;10.444;2023-04-29T05:27:43;20.73;;;14.55;;
12024;SDS011;6073;53.230;10.444;2023-04-29T05:30:08;20.30;;;16.20;;
12024;SDS011;6073;53.230;10.444;2023-04-29T05:32:34;20.00;;;15.88;;
12024;SDS011;6073;53.230;10.444;2023-04-29T05:35:00;22.50;;;15.57;;
12024;SDS011;6073;53.230;10.444;2023-04-29T05:37:26;20.00;;;15.63;;
12024;SDS011;6073;53.230;10.444;2023-04-29T05:39:54;22.45;;;15.48;;
12024;SDS011;6073;53.230;10.444;2023-04-29T05:42:21;20.33;;;15.85;;
12024;SDS011;6073;53.230;10.444;2023-04-29T05:44:47;19.35;;;14.60;;
12024;SDS011;6073;53.230;10.444;2023-04-29T05:47:13;20.00;;;15.00;;
12024;SDS011;6073;53.230;10.444;2023-04-29T05:49:39;18.25;;;15.43;;
12024;SDS011;6073;53.230;10.444;2023-04-29T05:52:04;17.75;;;15.60;;
12024;SDS011;6073;53.230;10.444;2023-04-29T05:54:33;21.80;;;16.20;;
12024;SDS011;6073;53.230;10.444;2023-04-29T05:56:59;18.65;;;14.85;;
12024;SDS011;6073;53.230;10.444;2023-04-29T05:59:27;18.75;;;15.00;;
12024;SDS011;6073;53.230;10.444;2023-04-29T06:01:53;17.90;;;14.13;;
12024;SDS011;6073;53.230;10.444;2023-04-29T06:04:20;18.55;;;14.57;;
12024;SDS011;6073;53.230;10.444;2023-04-29T06:06:45;17.20;;;13.75;;
12024;SDS011;6073;53.230;10.444;2023-04-29T06:09:11;19.13;;;14.48;;
12024;SDS011;6073;53.230;10.444;2023-04-29T06:11:39;19.20;;;14.88;;
12024;SDS011;6073;53.230;10.444;2023-04-29T06:14:05;17.40;;;14.43;;
12024;SDS011;6073;53.230;10.444;2023-04-29T06:16:30;18.23;;;14.15;;
12024;SDS011;6073;53.230;10.444;2023-04-29T06:18:56;17.00;;;13.13;;
12024;SDS011;6073;53.230;10.444;2023-04-29T06:21:22;21.42;;;15.70;;
12024;SDS011;6073;53.230;10.444;2023-04-29T06:23:47;17.83;;;14.65;;
12024;SDS011;6073;53.230;10.444;2023-04-29T06:26:13;18.45;;;15.00;;
12024;SDS011;6073;53.230;10.444;2023-04-29T06:28:39;16.95;;;14.57;;
12024;SDS011;6073;53.230;10.444;2023-04-29T06:31:04;15.65;;;12.90;;
12024;SDS011;6073;53.230;10.444;2023-04-29T06:33:30;17.38;;;13.07;;
12024;SDS011;6073;53.230;10.444;2023-04-29T06:35:57;17.27;;;13.27;;
12024;SDS011;6073;53.230;10.444;2023-04-29T06:38:23;15.73;;;12.13;;
12024;SDS011;6073;53.230;10.444;2023-04-29T06:40:49;16.90;;;12.88;;
12024;SDS011;6073;53.230;10.444;2023-04-29T06:43:15;14.27;;;12.77;;
12024;SDS011;6073;53.230;10.444;2023-04-29T06:45:41;15.65;;;12.60;;
12024;SDS011;6073;53.230;10.444;2023-04-29T06:48:10;15.00;;;11.57;;
12024;SDS011;6073;53.230;10.444;2023-04-29T06:50:36;14.38;;;11.80;;
12024;SDS011;6073;53.230;10.444;2023-04-29T06:53:02;14.90;;;11.50;;
12024;SDS011;6073;53.230;10.444;2023-04-29T06:55:27;14.73;;;11.65;;
12024;SDS011;6073;53.230;10.444;2023-04-29T06:57:53;12.70;;;10.40;;
12024;SDS011;6073;53.230;10.444;2023-04-29T07:00:18;11.18;;;9.77;;
12024;SDS011;6073;53.230;10.444;2023-04-29T07:02:46;12.57;;;9.73;;
12024;SDS011;6073;53.230;10.444;2023-04-29T07:05:12;10.38;;;8.93;;
12024;SDS011;6073;53.230;10.444;2023-04-29T07:07:37;13.23;;;9.90;;
12024;SDS011;6073;53.230;10.444;2023-04-29T07:10:03;11.75;;;9.93;;
12024;SDS011;6073;53.230;10.444;2023-04-29T07:12:29;10.98;;;9.02;;
12024;SDS011;6073;53.230;10.444;2023-04-29T07:14:55;11.00;;;8.88;;
12024;SDS011;6073;53.230;10.444;2023-04-29T07:17:21;9.25;;;8.27;;
12024;SDS011;6073;53.230;10.444;2023-04-29T07:19:47;7.72;;;6.90;;
12024;SDS011;6073;53.230;10.444;2023-04-29T07:22:13;7.80;;;7.05;;
12024;SDS011;6073;53.230;10.444;2023-04-29T07:24:38;7.63;;;6.75;;
12024;SDS011;6073;53.230;10.444;2023-04-29T07:27:04;9.35;;;7.43;;
12024;SDS011;6073;53.230;10.444;2023-04-29T07:29:29;8.57;;;7.68;;
12024;SDS011;6073;53.230;10.444;2023-04-29T07:31:55;8.25;;;6.97;;
12024;SDS011;6073;53.230;10.444;2023-04-29T07:34:21;7.45;;;6.75;;
12024;SDS011;6073;53.230;10.444;2023-04-29T07:36:46;7.93;;;7.15;;
12024;SDS011;6073;53.230;10.444;2023-04-29T07:39:12;9.07;;;7.47;;
12024;SDS011;6073;53.230;10.444;2023-04-29T07:41:39;7.60;;;6.75;;
12024;SDS011;6073;53.230;10.444;2023-04-29T07:44:04;7.43;;;6.68;;
12024;SDS011;6073;53.230;10.444;2023-04-29T07:46:30;7.97;;;6.30;;
12024;SDS011;6073;53.230;10.444;2023-04-29T07:48:56;6.90;;;5.78;;
12024;SDS011;6073;53.230;10.444;2023-04-29T07:51:22;10.18;;;6.38;;
12024;SDS011;6073;53.230;10.444;2023-04-29T07:53:48;8.07;;;6.57;;
12024;SDS011;6073;53.230;10.444;2023-04-29T07:56:13;8.02;;;6.70;;
12024;SDS011;6073;53.230;10.444;2023-04-29T07:58:40;7.53;;;5.85;;
12024;SDS011;6073;53.230;10.444;2023-04-29T08:01:06;8.15;;;6.43;;
12024;SDS011;6073;53.230;10.444;2023-04-29T08:03:32;6.85;;;5.78;;
12024;SDS011;6073;53.230;10.444;2023-04-29T08:06:01;5.50;;;4.90;;
12024;SDS011;6073;53.230;10.444;2023-04-29T08:08:28;7.40;;;4.75;;
12024;SDS011;6073;53.230;10.444;2023-04-29T08:10:56;7.50;;;5.80;;
12024;SDS011;6073;53.230;10.444;2023-04-29T08:13:22;7.68;;;6.03;;
12024;SDS011;6073;53.230;10.444;2023-04-29T08:15:48;6.78;;;5.30;;
12024;SDS011;6073;53.230;10.444;2023-04-29T08:18:14;9.63;;;6.00;;
12024;SDS011;6073;53.230;10.444;2023-04-29T08:20:40;7.05;;;5.32;;
12024;SDS011;6073;53.230;10.444;2023-04-29T08:23:06;7.97;;;5.47;;
12024;SDS011;6073;53.230;10.444;2023-04-29T08:25:31;7.05;;;5.35;;
12024;SDS011;6073;53.230;10.444;2023-04-29T08:27:57;9.82;;;6.35;;
12024;SDS011;6073;53.230;10.444;2023-04-29T08:30:22;8.68;;;6.15;;
12024;SDS011;6073;53.230;10.444;2023-04-29T08:32:48;7.85;;;5.75;;
12024;SDS011;6073;53.230;10.444;2023-04-29T08:35:14;8.88;;;5.60;;
12024;SDS011;6073;53.230;10.444;2023-04-29T08:37:40;7.00;;;5.88;;
12024;SDS011;6073;53.230;10.444;2023-04-29T08:40:06;6.68;;;5.65;;
12024;SDS011;6073;53.230;10.444;2023-04-29T08:42:33;6.40;;;5.47;;
12024;SDS011;6073;53.230;10.444;2023-04-29T08:45:00;7.05;;;5.10;;
12024;SDS011;6073;53.230;10.444;2023-04-29T08:47:31;6.30;;;5.15;;
12024;SDS011;6073;53.230;10.444;2023-04-29T08:50:01;7.57;;;5.78;;
12024;SDS011;6073;53.230;10.444;2023-04-29T08:52:28;6.90;;;5.35;;
12024;SDS011;6073;53.230;10.444;2023-04-29T08:54:56;7.97;;;6.90;;
12024;SDS011;6073;53.230;10.444;2023-04-29T08:57:23;7.57;;;6.03;;
12024;SDS011;6073;53.230;10.444;2023-04-29T08:59:50;8.43;;;5.95;;
12024;SDS011;6073;53.230;10.444;2023-04-29T09:02:16;7.15;;;6.00;;
12024;SDS011;6073;53.230;10.444;2023-04-29T09:04:46;7.35;;;5.72;;
12024;SDS011;6073;53.230;10.444;2023-04-29T09:07:19;7.18;;;5.75;;
12024;SDS011;6073;53.230;10.444;2023-04-29T09:09:46;8.43;;;6.40;;
12024;SDS011;6073;53.230;10.444;2023-04-29T09:12:13;7.85;;;6.45;;
12024;SDS011;6073;53.230;10.444;2023-04-29T09:14:39;9.02;;;5.88;;
12024;SDS011;6073;53.230;10.444;2023-04-29T09:17:04;8.13;;;5.97;;
12024;SDS011;6073;53.230;10.444;2023-04-29T09:19:34;7.22;;;6.05;;
12024;SDS011;6073;53.230;10.444;2023-04-29T09:22:01;8.30;;;6.07;;
12024;SDS011;6073;53.230;10.444;2023-04-29T09:24:28;5.85;;;5.22;;
12024;SDS011;6073;53.230;10.444;2023-04-29T09:26:55;7.97;;;5.90;;
12024;SDS011;6073;53.230;10.444;2023-04-29T09:29:22;7.65;;;5.07;;
12024;SDS011;6073;53.230;10.444;2023-04-29T09:31:48;10.00;;;6.63;;
12024;SDS011;6073;53.230;10.444;2023-04-29T09:34:14;8.07;;;6.05;;
12024;SDS011;6073;53.230;10.444;2023-04-29T09:36:47;6.57;;;5.90;;
12024;SDS011;6073;53.230;10.444;2023-04-29T09:39:18;9.18;;;6.15;;
12024;SDS011;6073;53.230;10.444;2023-04-29T09:44:24;7.70;;;6.22;;
12024;SDS011;6073;53.230;10.444;2023-04-29T09:46:58;8.35;;;6.20;;
12024;SDS011;6073;53.230;10.444;2023-04-29T09:49:28;8.68;;;6.32;;
12024;SDS011;6073;53.230;10.444;2023-04-29T09:51:58;9.90;;;6.65;;
12024;SDS011;6073;53.230;10.444;2023-04-29T09:54:25;6.63;;;5.43;;
12024;SDS011;6073;53.230;10.444;2023-04-29T09:56:55;9.18;;;6.03;;
12024;SDS011;6073;53.230;10.444;2023-04-29T09:59:22;8.02;;;5.88;;
12024;SDS011;6073;53.230;10.444;2023-04-29T10:01:49;8.43;;;6.20;;
12024;SDS011;6073;53.230;10.444;2023-04-29T10:04:17;7.65;;;5.45;;
12024;SDS011;6073;53.230;10.444;2023-04-29T10:06:44;7.10;;;6.28;;
12024;SDS011;6073;53.230;10.444;2023-04-29T10:09:13;8.43;;;6.18;;
12024;SDS011;6073;53.230;10.444;2023-04-29T10:11:40;11.02;;;6.15;;
12024;SDS011;6073;53.230;10.444;2023-04-29T10:14:13;7.97;;;6.43;;
12024;SDS011;6073;53.230;10.444;2023-04-29T10:19:41;8.45;;;6.05;;
12024;SDS011;6073;53.230;10.444;2023-04-29T10:22:14;7.10;;;6.07;;
12024;SDS011;6073;53.230;10.444;2023-04-29T10:24:50;7.68;;;6.00;;
12024;SDS011;6073;53.230;10.444;2023-04-29T10:27:19;9.23;;;6.78;;
12024;SDS011;6073;53.230;10.444;2023-04-29T10:29:46;9.13;;;6.07;;
12024;SDS011;6073;53.230;10.444;2023-04-29T10:32:12;10.25;;;5.97;;
12024;SDS011;6073;53.230;10.444;2023-04-29T10:34:39;8.70;;;6.03;;
12024;SDS011;6073;53.230;10.444;2023-04-29T10:37:07;7.55;;;6.38;;
12024;SDS011;6073;53.230;10.444;2023-04-29T10:39:38;11.30;;;7.10;;
12024;SDS011;6073;53.230;10.444;2023-04-29T10:42:15;8.40;;;6.25;;
12024;SDS011;6073;53.230;10.444;2023-04-29T10:50:33;7.70;;;6.07;;
12024;SDS011;6073;53.230;10.444;2023-04-29T10:53:03;6.50;;;5.65;;
12024;SDS011;6073;53.230;10.444;2023-04-29T10:55:30;8.70;;;6.47;;
12024;SDS011;6073;53.230;10.444;2023-04-29T10:57:56;10.70;;;6.47;;
12024;SDS011;6073;53.230;10.444;2023-04-29T11:00:23;8.32;;;6.32;;
12024;SDS011;6073;53.230;10.444;2023-04-29T11:02:52;8.05;;;5.85;;
12024;SDS011;6073;53.230;10.444;2023-04-29T11:08:08;8.70;;;7.53;;
12024;SDS011;6073;53.230;10.444;2023-04-29T11:10:40;8.52;;;6.85;;
12024;SDS011;6073;53.230;10.444;2023-04-29T11:15:52;9.55;;;6.78;;
12024;SDS011;6073;53.230;10.444;2023-04-29T11:18:31;8.43;;;7.43;;
12024;SDS011;6073;53.230;10.444;2023-04-29T11:23:28;6.88;;;6.20;;
12024;SDS011;6073;53.230;10.444;2023-04-29T11:25:54;8.60;;;6.95;;
12024;SDS011;6073;53.230;10.444;2023-04-29T11:28:20;9.93;;;7.10;;
12024;SDS011;6073;53.230;10.444;2023-04-29T11:30:48;9.77;;;7.68;;
12024;SDS011;6073;53.230;10.444;2023-04-29T11:33:15;8.95;;;6.82;;
12024;SDS011;6073;53.230;10.444;2023-04-29T11:35:41;8.93;;;6.82;;
12024;SDS011;6073;53.230;10.444;2023-04-29T11:38:07;8.65;;;6.43;;
12024;SDS011;6073;53.230;10.444;2023-04-29T11:40:33;7.53;;;6.50;;
12024;SDS011;6073;53.230;10.444;2023-04-29T11:42:59;9.57;;;6.13;;
12024;SDS011;6073;53.230;10.444;2023-04-29T11:45:25;9.52;;;6.80;;
12024;SDS011;6073;53.230;10.444;2023-04-29T11:47:50;10.02;;;6.20;;
12024;SDS011;6073;53.230;10.444;2023-04-29T11:50:16;7.10;;;6.10;;
12024;SDS011;6073;53.230;10.444;2023-04-29T11:52:44;7.43;;;5.97;;
12024;SDS011;6073;53.230;10.444;2023-04-29T11:55:11;7.00;;;6.30;;
12024;SDS011;6073;53.230;10.444;2023-04-29T11:57:38;7.30;;;5.85;;
12024;SDS011;6073;53.230;10.444;2023-04-29T12:00:04;7.65;;;5.15;;
12024;SDS011;6073;53.230;10.444;2023-04-29T12:02:34;6.90;;;5.78;;
12024;SDS011;6073;53.230;10.444;2023-04-29T12:04:59;7.53;;;5.68;;
12024;SDS011;6073;53.230;10.444;2023-04-29T12:07:30;6.28;;;5.35;;
12024;SDS011;6073;53.230;10.444;2023-04-29T12:09:56;7.95;;;5.50;;
12024;SDS011;6073;53.230;10.444;2023-04-29T12:12:22;6.38;;;5.78;;
12024;SDS011;6073;53.230;10.444;2023-04-29T12:14:48;6.65;;;5.50;;
12024;SDS011;6073;53.230;10.444;2023-04-29T12:17:15;7.15;;;5.55;;
12024;SDS011;6073;53.230;10.444;2023-04-29T12:19:41;8.40;;;5.80;;
12024;SDS011;6073;53.230;10.444;2023-04-29T12:22:08;6.70;;;5.75;;
12024;SDS011;6073;53.230;10.444;2023-04-29T12:24:37;7.38;;;6.13;;
12024;SDS011;6073;53.230;10.444;2023-04-29T12:27:06;6.50;;;5.50;;
12024;SDS011;6073;53.230;10.444;2023-04-29T12:29:34;11.88;;;5.28;;
12024;SDS011;6073;53.230;10.444;2023-04-29T12:32:00;6.22;;;5.03;;
12024;SDS011;6073;53.230;10.444;2023-04-29T12:34:27;6.38;;;5.78;;
12024;SDS011;6073;53.230;10.444;2023-04-29T12:36:54;6.13;;;5.00;;
12024;SDS011;6073;53.230;10.444;2023-04-29T12:39:21;8.70;;;6.38;;
12024;SDS011;6073;53.230;10.444;2023-04-29T12:41:47;7.00;;;5.43;;
12024;SDS011;6073;53.230;10.444;2023-04-29T12:44:12;9.10;;;6.20;;
12024;SDS011;6073;53.230;10.444;2023-04-29T12:46:39;7.95;;;5.50;;
12024;SDS011;6073;53.230;10.444;2023-04-29T12:49:05;6.03;;;5.35;;
12024;SDS011;6073;53.230;10.444;2023-04-29T12:51:32;6.90;;;5.50;;
12024;SDS011;6073;53.230;10.444;2023-04-29T12:53:59;7.70;;;6.18;;
12024;SDS011;6073;53.230;10.444;2023-04-29T12:56:25;6.88;;;5.78;;
12024;SDS011;6073;53.230;10.444;2023-04-29T12:58:51;6.78;;;5.03;;
12024;SDS011;6073;53.230;10.444;2023-04-29T13:01:17;7.80;;;5.70;;
12024;SDS011;6073;53.230;10.444;2023-04-29T13:03:42;7.20;;;5.40;;
12024;SDS011;6073;53.230;10.444;2023-04-29T13:06:08;6.35;;;5.72;;
12024;SDS011;6073;53.230;10.444;2023-04-29T13:08:33;7.65;;;6.13;;
12024;SDS011;6073;53.230;10.444;2023-04-29T13:10:59;8.82;;;7.20;;
12024;SDS011;6073;53.230;10.444;2023-04-29T13:13:25;8.90;;;6.40;;
12024;SDS011;6073;53.230;10.444;2023-04-29T13:15:51;7.03;;;6.00;;
12024;SDS011;6073;53.230;10.444;2023-04-29T13:18:17;9.75;;;6.90;;
12024;SDS011;6073;53.230;10.444;2023-04-29T13:20:42;7.32;;;6.45;;
12024;SDS011;6073;53.230;10.444;2023-04-29T13:23:08;9.60;;;6.85;;
12024;SDS011;6073;53.230;10.444;2023-04-29T13:25:34;7.45;;;6.55;;
12024;SDS011;6073;53.230;10.444;2023-04-29T13:28:00;7.45;;;5.78;;
12024;SDS011;6073;53.230;10.444;2023-04-29T13:30:25;8.98;;;6.22;;
12024;SDS011;6073;53.230;10.444;2023-04-29T13:32:51;7.20;;;5.93;;
12024;SDS011;6073;53.230;10.444;2023-04-29T13:35:16;7.97;;;6.10;;
12024;SDS011;6073;53.230;10.444;2023-04-29T13:37:42;6.18;;;5.57;;
12024;SDS011;6073;53.230;10.444;2023-04-29T13:40:08;7.28;;;5.88;;
12024;SDS011;6073;53.230;10.444;2023-04-29T13:42:34;8.52;;;5.60;;
12024;SDS011;6073;53.230;10.444;2023-04-29T13:45:00;7.78;;;5.57;;
12024;SDS011;6073;53.230;10.444;2023-04-29T13:47:27;7.40;;;6.28;;
12024;SDS011;6073;53.230;10.444;2023-04-29T13:49:53;8.88;;;6.95;;
12024;SDS011;6073;53.230;10.444;2023-04-29T13:52:18;11.77;;;6.60;;
12024;SDS011;6073;53.230;10.444;2023-04-29T13:54:44;6.43;;;5.75;;
12024;SDS011;6073;53.230;10.444;2023-04-29T13:57:09;6.90;;;6.05;;
12024;SDS011;6073;53.230;10.444;2023-04-29T13:59:35;8.60;;;5.45;;
12024;SDS011;6073;53.230;10.444;2023-04-29T14:02:01;6.10;;;4.95;;
12024;SDS011;6073;53.230;10.444;2023-04-29T14:04:27;7.03;;;5.88;;
12024;SDS011;6073;53.230;10.444;2023-04-29T14:06:53;8.73;;;4.93;;
12024;SDS011;6073;53.230;10.444;2023-04-29T14:09:20;5.78;;;5.00;;
12024;SDS011;6073;53.230;10.444;2023-04-29T14:11:47;7.55;;;5.03;;
12024;SDS011;6073;53.230;10.444;2023-04-29T14:14:13;9.38;;;5.28;;
12024;SDS011;6073;53.230;10.444;2023-04-29T14:16:39;5.75;;;4.90;;
12024;SDS011;6073;53.230;10.444;2023-04-29T14:19:05;7.78;;;4.72;;
12024;SDS011;6073;53.230;10.444;2023-04-29T14:21:31;5.68;;;4.40;;
12024;SDS011;6073;53.230;10.444;2023-04-29T14:23:57;7.65;;;4.50;;
12024;SDS011;6073;53.230;10.444;2023-04-29T14:26:23;6.20;;;4.50;;
12024;SDS011;6073;53.230;10.444;2023-04-29T14:28:50;6.68;;;3.92;;
12024;SDS011;6073;53.230;10.444;2023-04-29T14:31:21;6.28;;;4.40;;
12024;SDS011;6073;53.230;10.444;2023-04-29T14:33:51;5.63;;;4.82;;
12024;SDS011;6073;53.230;10.444;2023-04-29T14:36:18;7.70;;;3.83;;
12024;SDS011;6073;53.230;10.444;2023-04-29T14:38:43;6.40;;;4.43;;
12024;SDS011;6073;53.230;10.444;2023-04-29T14:41:09;6.72;;;4.38;;
12024;SDS011;6073;53.230;10.444;2023-04-29T14:43:35;7.50;;;4.88;;
12024;SDS011;6073;53.230;10.444;2023-04-29T14:46:00;6.00;;;4.30;;
12024;SDS011;6073;53.230;10.444;2023-04-29T14:48:26;9.25;;;5.00;;
12024;SDS011;6073;53.230;10.444;2023-04-29T14:50:52;6.20;;;3.70;;
12024;SDS011;6073;53.230;10.444;2023-04-29T14:53:18;6.00;;;4.32;;
12024;SDS011;6073;53.230;10.444;2023-04-29T14:55:45;4.55;;;3.85;;
12024;SDS011;6073;53.230;10.444;2023-04-29T14:58:13;3.58;;;3.00;;